CDT,Max TemperatureF,Mean TemperatureF,Min TemperatureF,Max Dew PointF,MeanDew PointF,Min DewpointF,Max Humidity, Mean Humidity, Min Humidity, Max Sea Level PressureIn, Mean Sea Level PressureIn, Min Sea Level PressureIn, Max VisibilityMiles, Mean VisibilityMiles, Min VisibilityMiles, Max Wind SpeedMPH, Mean Wind SpeedMPH, Max Gust SpeedMPH,PrecipitationIn, CloudCover, Events, WindDirDegrees
2013-9-1,78,70,62,64,59,54,94,69,44,30.05,29.95,29.86,10,10,10,16,7,26,0.20,1,Rain,342
2013-9-2,75,62,50,55,52,46,94,68,41,30.13,30.08,30.05,10,10,0,9,3,,0.00,0,Fog,357
2013-9-3,82,68,53,66,56,48,82,68,47,30.10,30.06,30.01,10,10,10,12,3,,0.00,0,,168
2013-9-4,87,74,62,66,61,57,88,66,35,30.15,30.11,30.04,10,10,10,8,4,,0.00,1,,179
2013-9-5,80,74,68,66,64,61,83,71,57,30.20,30.15,30.10,10,10,5,10,6,,0.09,3,Rain,170
2013-9-6,89,78,66,72,64,61,88,67,43,30.10,29.99,29.89,10,10,10,18,8,26,0.00,0,,166
2013-9-7,86,77,68,73,68,63,88,77,58,29.99,29.93,29.88,10,9,3,12,4,18,0.03,0,Rain,68
2013-9-8,80,74,69,70,67,64,88,79,61,29.98,29.92,29.83,10,8,5,12,6,16,0.00,3,,90
2013-9-9,93,81,69,70,65,61,88,65,34,29.87,29.78,29.73,10,8,4,20,8,24,0.00,1,,180
2013-9-10,80,73,66,66,63,57,88,69,47,30.05,29.97,29.87,10,10,10,8,4,,0.00,0,,10
2013-9-11,84,73,62,63,58,46,94,63,27,30.13,30.10,30.06,10,10,7,8,2,,0.00,0,,314
2013-9-12,77,68,59,55,47,39,72,47,27,30.28,30.22,30.15,10,10,10,12,6,16,0.00,1,,24
2013-9-13,73,62,50,50,46,43,82,57,33,30.26,30.19,30.08,10,10,10,7,3,,0.00,0,,114
2013-9-14,69,60,50,55,48,43,77,63,46,30.08,29.97,29.85,10,10,10,18,7,25,0.00,3,,174
2013-9-15,69,62,55,57,53,50,88,71,53,30.30,30.07,29.82,10,10,10,16,9,26,0.00,6,,26
2013-9-16,69,58,46,52,48,45,93,72,40,30.36,30.29,30.20,10,10,10,10,4,,0.00,4,,113
2013-9-17,66,60,55,63,56,48,94,87,77,30.21,30.03,29.87,10,6,2,12,8,18,0.00,8,Rain,154
2013-9-18,86,76,66,66,65,63,88,71,51,29.87,29.75,29.67,10,8,5,20,12,24,0.00,4,,178
2013-9-19,75,65,55,66,58,46,83,68,41,29.99,29.80,29.65,10,10,10,23,11,36,0.00,2,Rain,287
2013-9-20,66,55,44,46,42,36,87,64,32,30.04,30.00,29.97,10,10,10,20,9,26,0.00,1,,305
2013-9-21,75,57,39,48,40,34,87,55,25,30.02,29.96,29.87,10,10,10,9,2,,0.00,0,,153
2013-9-22,82,66,51,52,47,41,82,55,24,29.88,29.83,29.77,10,10,10,22,9,30,0.00,0,,159
2013-9-23,78,66,53,52,46,41,77,53,26,29.84,29.81,29.76,10,10,10,20,10,26,0.00,0,Rain,151
2013-9-24,75,65,55,55,51,48,88,66,44,29.94,29.89,29.82,10,10,10,8,4,,0.00,2,Rain,94
2013-9-25,78,66,53,57,52,48,94,65,34,29.94,29.86,29.76,10,10,10,15,5,22,0.00,0,,128
2013-9-26,87,74,62,59,55,50,88,58,27,29.82,29.77,29.73,10,10,10,23,13,34,0.00,0,,155
2013-9-27,84,76,68,61,57,54,73,54,37,29.82,29.78,29.71,10,10,10,25,14,33,0.03,0,Rain,166
2013-9-28,73,60,48,59,46,36,94,66,34,30.01,29.86,29.68,10,10,2,20,12,28,0.10,4,Rain,271
2013-9-29,80,62,44,43,38,32,76,48,17,30.01,29.91,29.81,10,10,10,22,9,32,0.00,0,,193
2013-9-30,82,68,55,48,44,39,72,46,21,29.81,29.70,29.63,10,10,10,21,15,28,0.00,0,,195